createdAt,value
2023-01-02T00:00:06.743Z,7.63
2023-01-02T00:02:33.569Z,7.20
2023-01-02T00:05:00.304Z,7.50
2023-01-02T00:07:27.016Z,7.18
2023-01-02T00:09:53.634Z,7.78
2023-01-02T00:12:20.283Z,8.30
2023-01-02T00:14:46.908Z,7.38
2023-01-02T00:17:13.701Z,7.07
2023-01-02T00:19:40.337Z,7.40
2023-01-02T00:22:07.002Z,7.38
2023-01-02T00:24:33.636Z,7.43
2023-01-02T00:27:00.308Z,6.97
2023-01-02T00:29:27.049Z,7.38
2023-01-02T00:31:53.799Z,7.10
2023-01-02T00:34:20.727Z,7.05
2023-01-02T00:36:47.509Z,7.68
2023-01-02T00:39:14.294Z,6.80
2023-01-02T00:41:41.000Z,6.63
2023-01-02T00:44:07.715Z,6.32
2023-01-02T00:46:34.538Z,6.63
2023-01-02T00:49:01.291Z,6.50
2023-01-02T00:51:28.016Z,6.65
2023-01-02T00:53:54.715Z,6.45
2023-01-02T00:56:21.385Z,6.20
2023-01-02T00:58:48.133Z,6.50
2023-01-02T01:01:15.084Z,6.60
2023-01-02T01:03:41.933Z,6.07
2023-01-02T01:06:18.630Z,5.90
2023-01-02T01:08:45.347Z,6.40
2023-01-02T01:11:14.403Z,6.47
2023-01-02T01:13:41.850Z,5.93
2023-01-02T01:16:14.752Z,5.97
2023-01-02T01:18:41.573Z,6.10
2023-01-02T01:21:16.520Z,6.13
2023-01-02T01:23:44.096Z,5.87
2023-01-02T01:26:12.820Z,5.90
2023-01-02T01:28:40.512Z,5.88
2023-01-02T01:31:14.890Z,6.28
2023-01-02T01:33:43.202Z,5.88
2023-01-02T01:36:15.911Z,6.20
2023-01-02T01:38:43.445Z,5.50
2023-01-02T01:41:12.852Z,5.93
2023-01-02T01:43:45.921Z,5.93
2023-01-02T01:46:35.580Z,6.22
2023-01-02T01:49:08.492Z,5.70
2023-01-02T01:51:38.663Z,5.85
2023-01-02T01:54:11.511Z,6.05
2023-01-02T01:56:43.399Z,5.95
2023-01-02T01:59:11.840Z,5.80
2023-01-02T02:01:41.483Z,5.78
2023-01-02T02:04:14.940Z,5.45
2023-01-02T02:06:42.037Z,6.00
2023-01-02T02:09:25.554Z,6.28
2023-01-02T02:11:55.122Z,5.93
2023-01-02T02:14:21.986Z,6.05
2023-01-02T02:16:58.493Z,5.70
2023-01-02T02:20:06.037Z,5.43
2023-01-02T02:23:10.100Z,5.68
2023-01-02T02:25:56.135Z,4.97
2023-01-02T02:28:39.031Z,5.85
2023-01-02T02:31:26.639Z,5.45
2023-01-02T02:34:25.580Z,5.70
2023-01-02T02:37:24.604Z,5.65
2023-01-02T02:40:09.919Z,5.55
2023-01-02T02:42:45.901Z,4.90
2023-01-02T02:45:27.160Z,5.03
2023-01-02T02:48:26.273Z,5.10
2023-01-02T02:51:05.726Z,5.45
2023-01-02T02:53:56.338Z,5.07
2023-01-02T02:56:24.926Z,5.38
2023-01-02T02:58:53.111Z,5.20
2023-01-02T03:01:21.244Z,5.63
2023-01-02T03:03:50.138Z,5.20
2023-01-02T03:06:16.788Z,5.30
2023-01-02T03:09:09.607Z,5.00
2023-01-02T03:12:18.119Z,5.93
2023-01-02T03:15:01.307Z,5.70
2023-01-02T03:17:41.678Z,5.18
2023-01-02T03:20:13.151Z,5.72
2023-01-02T03:22:44.453Z,5.40
2023-01-02T03:25:12.523Z,5.00
2023-01-02T03:27:44.329Z,5.72
2023-01-02T03:30:22.310Z,5.30
2023-01-02T03:33:14.458Z,5.47
2023-01-02T03:35:46.118Z,5.70
2023-01-02T03:38:35.826Z,5.68
2023-01-02T03:41:06.507Z,5.40
2023-01-02T03:43:37.341Z,5.78
2023-01-02T03:46:18.961Z,5.95
2023-01-02T03:48:56.011Z,5.63
2023-01-02T03:51:22.810Z,5.65
2023-01-02T03:53:49.665Z,5.60
2023-01-02T03:56:28.286Z,5.35
2023-01-02T03:59:15.544Z,5.50
2023-01-02T04:01:58.309Z,6.18
2023-01-02T04:04:50.484Z,6.05
2023-01-02T04:07:39.385Z,5.60
2023-01-02T04:10:08.331Z,5.40
2023-01-02T04:12:39.812Z,6.10
2023-01-02T04:15:10.465Z,5.82
2023-01-02T04:17:43.657Z,6.35
2023-01-02T04:20:27.983Z,6.28
2023-01-02T04:23:11.248Z,5.90
2023-01-02T04:26:00.685Z,6.32
2023-01-02T04:28:30.351Z,6.55
2023-01-02T04:31:19.521Z,5.90
2023-01-02T04:33:54.689Z,6.35
2023-01-02T04:36:21.580Z,6.18
2023-01-02T04:38:48.468Z,6.72
2023-01-02T04:41:21.124Z,6.28
2023-01-02T04:43:47.797Z,6.50
2023-01-02T04:46:14.501Z,6.47
2023-01-02T04:48:41.190Z,6.10
2023-01-02T04:51:07.863Z,6.05
2023-01-02T04:53:34.559Z,6.45
2023-01-02T04:56:01.480Z,5.95
2023-01-02T04:58:28.348Z,5.93
2023-01-02T05:00:55.330Z,6.40
2023-01-02T05:03:22.362Z,6.13
2023-01-02T05:05:49.110Z,6.32
2023-01-02T05:08:16.518Z,6.57
2023-01-02T05:10:43.574Z,6.47
2023-01-02T05:13:10.255Z,6.22
2023-01-02T05:15:37.016Z,6.10
2023-01-02T05:18:03.812Z,6.65
2023-01-02T05:20:30.598Z,6.57
2023-01-02T05:22:57.265Z,6.80
2023-01-02T05:25:25.520Z,6.63
2023-01-02T05:27:53.599Z,6.10
2023-01-02T05:30:21.167Z,6.95
2023-01-02T05:32:47.955Z,6.10
2023-01-02T05:35:15.148Z,6.40
2023-01-02T05:37:41.831Z,7.25
2023-01-02T05:40:09.148Z,6.20
2023-01-02T05:42:35.880Z,6.07
2023-01-02T05:45:02.925Z,6.35
2023-01-02T05:47:29.525Z,6.10
2023-01-02T05:49:56.406Z,6.03
2023-01-02T05:52:23.077Z,6.10
2023-01-02T05:54:49.770Z,5.93
2023-01-02T05:57:16.764Z,6.07
2023-01-02T05:59:43.398Z,5.68
2023-01-02T06:02:10.149Z,5.72
2023-01-02T06:04:37.043Z,5.63
2023-01-02T06:07:03.699Z,5.70
2023-01-02T06:09:30.382Z,5.30
2023-01-02T06:11:57.085Z,5.82
2023-01-02T06:14:24.078Z,6.40
2023-01-02T06:16:50.830Z,5.78
2023-01-02T06:19:17.504Z,5.55
2023-01-02T06:21:44.179Z,5.10
2023-01-02T06:24:10.948Z,5.80
2023-01-02T06:26:37.822Z,5.75
2023-01-02T06:29:04.522Z,5.38
2023-01-02T06:31:31.190Z,5.63
2023-01-02T06:34:00.219Z,5.47
2023-01-02T06:36:30.245Z,5.88
2023-01-02T06:38:57.666Z,5.43
2023-01-02T06:41:24.630Z,5.40
2023-01-02T06:43:52.178Z,5.43
2023-01-02T06:46:21.373Z,5.88
2023-01-02T06:48:48.548Z,5.03
2023-01-02T06:51:18.223Z,4.95
2023-01-02T06:53:45.172Z,4.90
2023-01-02T06:56:13.687Z,4.80
2023-01-02T06:58:40.336Z,4.65
2023-01-02T07:01:09.372Z,4.25
2023-01-02T07:03:36.544Z,4.57
2023-01-02T07:06:08.538Z,4.57
2023-01-02T07:08:36.563Z,4.70
2023-01-02T07:11:23.867Z,4.80
2023-01-02T07:13:52.966Z,4.32
2023-01-02T07:16:21.948Z,4.65
2023-01-02T07:18:49.152Z,4.55
2023-01-02T07:21:17.031Z,4.75
2023-01-02T07:23:44.142Z,4.47
2023-01-02T07:26:11.647Z,4.85
2023-01-02T07:28:38.934Z,5.05
2023-01-02T07:31:08.431Z,4.28
2023-01-02T07:33:35.845Z,4.45
2023-01-02T07:36:05.382Z,4.68
2023-01-02T07:38:32.993Z,4.82
2023-01-02T07:40:59.710Z,4.80
2023-01-02T07:43:26.441Z,4.43
2023-01-02T07:45:53.219Z,4.35
2023-01-02T07:48:20.201Z,4.25
2023-01-02T07:50:47.241Z,4.30
2023-01-02T07:53:14.099Z,4.35
2023-01-02T07:55:40.946Z,5.05
2023-01-02T07:58:07.824Z,4.35
2023-01-02T08:00:34.522Z,4.68
2023-01-02T08:03:02.038Z,4.30
2023-01-02T08:05:28.776Z,4.20
2023-01-02T08:07:55.478Z,4.57
2023-01-02T08:10:22.865Z,4.57
2023-01-02T08:12:49.569Z,4.53
2023-01-02T08:15:16.435Z,4.25
2023-01-02T08:17:43.546Z,4.28
2023-01-02T08:20:11.262Z,4.40
2023-01-02T08:22:51.602Z,4.18
2023-01-02T08:25:21.240Z,4.38
2023-01-02T08:27:49.035Z,4.05
2023-01-02T08:30:18.936Z,4.03
2023-01-02T08:32:48.810Z,3.78
2023-01-02T08:35:16.376Z,4.03
2023-01-02T08:37:50.599Z,4.07
2023-01-02T08:45:21.943Z,4.20
2023-01-02T08:51:14.077Z,4.20
2023-01-02T08:53:41.244Z,4.15
2023-01-02T08:56:27.722Z,4.00
2023-01-02T08:59:00.832Z,4.10
2023-01-02T09:01:29.593Z,4.28
2023-01-02T09:03:56.976Z,4.20
2023-01-02T09:06:26.665Z,3.85
2023-01-02T09:08:54.824Z,3.90
2023-01-02T09:11:24.749Z,4.03
2023-01-02T09:13:53.157Z,3.92
2023-01-02T09:16:23.381Z,4.00
2023-01-02T09:18:53.929Z,4.25
2023-01-02T09:21:21.856Z,3.65
2023-01-02T09:23:48.663Z,3.90
2023-01-02T09:26:17.843Z,3.90
2023-01-02T09:28:44.854Z,4.07
2023-01-02T09:31:15.237Z,4.10
2023-01-02T09:33:43.901Z,4.03
2023-01-02T09:36:13.796Z,3.90
2023-01-02T09:38:40.818Z,4.43
2023-01-02T09:41:26.322Z,3.95
2023-01-02T09:44:00.877Z,4.15
2023-01-02T09:46:40.220Z,4.10
2023-01-02T09:49:13.398Z,3.15
2023-01-02T09:51:40.733Z,4.03
2023-01-02T09:54:27.538Z,3.65
2023-01-02T09:57:15.777Z,4.13
2023-01-02T10:00:01.692Z,4.50
2023-01-02T10:02:31.207Z,4.15
2023-01-02T10:05:19.196Z,3.88
2023-01-02T10:08:13.609Z,3.80
2023-01-02T10:10:48.679Z,3.53
2023-01-02T10:13:44.188Z,3.85
2023-01-02T10:18:49.444Z,3.55
2023-01-02T10:21:22.765Z,4.07
2023-01-02T10:24:02.815Z,4.03
2023-01-02T10:26:44.247Z,3.47
2023-01-02T10:29:29.284Z,3.13
2023-01-02T10:32:04.172Z,3.55
2023-01-02T10:34:45.064Z,3.47
2023-01-02T10:37:17.140Z,3.47
2023-01-02T10:39:46.544Z,3.88
2023-01-02T10:42:15.848Z,3.50
2023-01-02T10:44:48.309Z,3.38
2023-01-02T10:47:22.775Z,3.20
2023-01-02T10:49:52.944Z,3.70
2023-01-02T10:52:29.985Z,3.90
2023-01-02T10:55:00.523Z,4.07
2023-01-02T10:57:46.507Z,3.63
2023-01-02T11:00:25.680Z,3.60
2023-01-02T11:02:57.700Z,6.97
2023-01-02T11:05:28.332Z,3.35
2023-01-02T11:07:55.686Z,3.67
2023-01-02T11:10:34.068Z,3.53
2023-01-02T11:13:10.053Z,3.20
2023-01-02T11:15:56.431Z,4.15
2023-01-02T11:18:32.136Z,3.72
2023-01-02T11:23:27.507Z,3.97
2023-01-02T11:25:54.582Z,3.70
2023-01-02T11:28:27.013Z,3.85
2023-01-02T11:31:04.744Z,4.00
2023-01-02T11:33:34.004Z,4.10
2023-01-02T11:36:03.868Z,3.88
2023-01-02T11:38:49.053Z,4.00
2023-01-02T11:41:31.991Z,4.25
2023-01-02T11:43:59.196Z,3.47
2023-01-02T11:46:33.299Z,3.92
2023-01-02T11:49:13.688Z,3.88
2023-01-02T11:51:41.301Z,4.30
2023-01-02T11:54:21.908Z,3.70
2023-01-02T11:56:51.263Z,3.85
2023-01-02T11:59:33.997Z,4.10
2023-01-02T12:02:20.793Z,3.80
2023-01-02T12:07:47.457Z,4.05
2023-01-02T12:10:40.010Z,3.85
2023-01-02T12:13:31.771Z,4.18
2023-01-02T12:16:16.833Z,4.43
2023-01-02T12:18:56.541Z,4.72
2023-01-02T12:21:26.205Z,4.32
2023-01-02T12:24:30.751Z,4.20
2023-01-02T12:27:01.827Z,4.22
2023-01-02T12:29:46.063Z,4.05
2023-01-02T12:32:25.188Z,4.68
2023-01-02T12:35:10.909Z,4.20
2023-01-02T12:37:48.652Z,4.07
2023-01-02T12:40:29.588Z,3.75
2023-01-02T12:43:35.558Z,3.55
2023-01-02T12:46:17.225Z,3.90
2023-01-02T12:49:16.060Z,4.00
2023-01-02T12:52:21.012Z,3.63
2023-01-02T12:55:11.064Z,3.72
2023-01-02T12:58:00.583Z,3.90
2023-01-02T13:00:45.789Z,3.63
2023-01-02T13:03:43.431Z,4.47
2023-01-02T13:06:43.383Z,3.58
2023-01-02T13:09:40.474Z,4.22
2023-01-02T13:12:12.503Z,3.65
2023-01-02T13:15:02.843Z,3.55
2023-01-02T13:17:41.934Z,4.18
2023-01-02T13:20:39.460Z,3.92
2023-01-02T13:23:24.244Z,3.80
2023-01-02T13:25:56.178Z,3.97
2023-01-02T13:28:25.974Z,3.92
2023-01-02T13:33:57.360Z,3.80
2023-01-02T13:36:38.465Z,3.60
2023-01-02T13:39:22.708Z,4.03
2023-01-02T13:42:04.248Z,4.60
2023-01-02T13:44:40.953Z,4.35
2023-01-02T13:47:25.905Z,4.05
2023-01-02T13:50:38.155Z,3.28
2023-01-02T13:53:11.134Z,3.60
2023-01-02T13:55:40.992Z,4.30
2023-01-02T13:58:15.282Z,3.95
2023-01-02T14:00:53.901Z,3.40
2023-01-02T14:03:25.849Z,4.00
2023-01-02T14:05:58.995Z,4.22
2023-01-02T14:08:40.760Z,4.30
2023-01-02T14:11:17.345Z,3.92
2023-01-02T14:13:45.832Z,4.20
2023-01-02T14:16:26.506Z,4.82
2023-01-02T14:19:14.920Z,4.25
2023-01-02T14:21:52.938Z,4.15
2023-01-02T14:24:46.666Z,3.55
2023-01-02T14:27:16.143Z,4.03
2023-01-02T14:29:52.514Z,4.20
2023-01-02T14:32:26.641Z,4.53
2023-01-02T14:34:56.686Z,4.30
2023-01-02T14:37:47.996Z,4.70
2023-01-02T14:40:17.441Z,3.63
2023-01-02T14:42:46.283Z,4.70
2023-01-02T14:45:18.499Z,3.90
2023-01-02T14:48:09.653Z,4.20
2023-01-02T14:50:41.219Z,3.63
2023-01-02T14:53:32.345Z,4.10
2023-01-02T14:56:05.095Z,3.97
2023-01-02T14:58:36.966Z,3.70
2023-01-02T15:01:05.100Z,4.63
2023-01-02T15:03:48.198Z,4.22
2023-01-02T15:06:36.607Z,4.50
2023-01-02T15:09:11.129Z,5.03
2023-01-02T15:11:37.957Z,4.00
2023-01-02T15:14:06.706Z,4.03
2023-01-02T15:16:42.725Z,3.92
2023-01-02T15:19:17.396Z,4.10
2023-01-02T15:24:25.556Z,4.05
2023-01-02T15:26:52.945Z,3.97
2023-01-02T15:29:29.533Z,3.35
2023-01-02T15:32:00.824Z,3.88
2023-01-02T15:34:30.909Z,3.70
2023-01-02T15:37:03.013Z,2.92
2023-01-02T15:39:39.463Z,3.08
2023-01-02T15:42:12.120Z,2.88
2023-01-02T15:44:39.744Z,2.80
2023-01-02T15:47:08.739Z,2.33
2023-01-02T15:49:41.252Z,2.13
2023-01-02T15:52:27.338Z,1.77
2023-01-02T15:57:29.893Z,1.60
2023-01-02T15:59:56.904Z,1.50
2023-01-02T16:02:40.786Z,1.33
2023-01-02T16:05:15.395Z,1.60
2023-01-02T16:07:48.801Z,1.17
2023-01-02T16:10:25.781Z,1.48
2023-01-02T16:13:04.974Z,1.42
2023-01-02T16:15:35.091Z,1.20
2023-01-02T16:18:03.064Z,1.27
2023-01-02T16:20:30.311Z,1.25
2023-01-02T16:23:05.944Z,1.45
2023-01-02T16:28:35.486Z,1.17
2023-01-02T16:31:21.052Z,1.20
2023-01-02T16:33:48.016Z,1.20
2023-01-02T16:36:14.857Z,1.40
2023-01-02T16:38:50.477Z,1.13
2023-01-02T16:41:29.491Z,1.42
2023-01-02T16:43:56.239Z,1.30
2023-01-02T16:46:22.969Z,1.20
2023-01-02T16:48:49.735Z,1.20
2023-01-02T16:51:22.734Z,1.38
2023-01-02T16:53:49.851Z,1.15
2023-01-02T16:56:17.416Z,1.20
2023-01-02T16:58:44.478Z,1.10
2023-01-02T17:01:15.354Z,1.40
2023-01-02T17:03:42.367Z,1.50
2023-01-02T17:06:15.904Z,1.30
2023-01-02T17:08:42.765Z,1.45
2023-01-02T17:11:15.064Z,1.00
2023-01-02T17:13:41.733Z,0.90
2023-01-02T17:16:08.524Z,1.23
2023-01-02T17:18:35.637Z,1.10
2023-01-02T17:21:02.868Z,0.70
2023-01-02T17:23:30.714Z,0.80
2023-01-02T17:25:57.535Z,0.60
2023-01-02T17:28:24.587Z,0.80
2023-01-02T17:30:51.957Z,0.75
2023-01-02T17:33:23.557Z,0.60
2023-01-02T17:35:50.734Z,0.90
2023-01-02T17:38:18.349Z,0.93
2023-01-02T17:40:45.630Z,0.75
2023-01-02T17:43:14.007Z,0.70
2023-01-02T17:45:42.212Z,0.60
2023-01-02T17:48:13.391Z,0.80
2023-01-02T17:50:42.040Z,0.73
2023-01-02T17:53:10.079Z,1.20
2023-01-02T17:55:37.090Z,0.88
2023-01-02T17:58:06.160Z,0.50
2023-01-02T18:00:33.008Z,0.60
2023-01-02T18:02:59.931Z,0.65
2023-01-02T18:05:26.861Z,0.95
2023-01-02T18:07:54.701Z,0.73
2023-01-02T18:10:24.804Z,0.82
2023-01-02T18:12:56.162Z,0.82
2023-01-02T18:15:23.262Z,0.82
2023-01-02T18:17:50.132Z,0.73
2023-01-02T18:20:19.869Z,1.10
2023-01-02T18:22:49.949Z,0.70
2023-01-02T18:25:21.426Z,1.10
2023-01-02T18:27:48.518Z,1.08
2023-01-02T18:30:24.138Z,1.00
2023-01-02T18:33:00.019Z,0.90
2023-01-02T18:38:18.389Z,0.93
2023-01-02T18:40:45.692Z,0.95
2023-01-02T18:43:31.313Z,0.70
2023-01-02T18:46:00.263Z,0.77
2023-01-02T18:48:27.500Z,0.70
2023-01-02T18:51:00.209Z,0.88
2023-01-02T18:53:34.371Z,0.80
2023-01-02T18:56:11.240Z,0.70
2023-01-02T18:59:04.144Z,0.68
2023-01-02T19:01:35.462Z,0.70
2023-01-02T19:04:24.086Z,0.65
2023-01-02T19:06:56.436Z,0.70
2023-01-02T19:09:41.369Z,0.77
2023-01-02T19:12:14.127Z,0.77
2023-01-02T19:14:43.037Z,0.80
2023-01-02T19:17:23.909Z,0.70
2023-01-02T19:19:50.653Z,0.90
2023-01-02T19:22:21.020Z,1.00
2023-01-02T19:24:47.963Z,0.90
2023-01-02T19:27:34.811Z,1.02
2023-01-02T19:30:25.654Z,0.68
2023-01-02T19:32:52.888Z,1.00
2023-01-02T19:35:25.618Z,1.10
2023-01-02T19:37:52.337Z,0.82
2023-01-02T19:40:23.266Z,0.90
2023-01-02T19:42:51.617Z,1.10
2023-01-02T19:45:23.887Z,0.88
2023-01-02T19:47:52.093Z,0.95
2023-01-02T19:50:25.299Z,0.93
2023-01-02T19:52:52.484Z,0.73
2023-01-02T19:55:19.827Z,1.05
2023-01-02T19:57:47.340Z,0.80
2023-01-02T20:00:16.759Z,0.98
2023-01-02T20:02:44.404Z,0.82
2023-01-02T20:05:14.823Z,0.80
2023-01-02T20:07:44.636Z,0.82
2023-01-02T20:10:11.890Z,1.15
2023-01-02T20:12:39.225Z,1.13
2023-01-02T20:15:22.853Z,1.00
2023-01-02T20:17:50.533Z,0.98
2023-01-02T20:20:19.945Z,0.98
2023-01-02T20:22:47.555Z,1.05
2023-01-02T20:25:15.615Z,1.10
2023-01-02T20:27:42.400Z,0.82
2023-01-02T20:30:10.873Z,0.90
2023-01-02T20:32:37.614Z,1.20
2023-01-02T20:35:04.892Z,1.00
2023-01-02T20:37:31.556Z,0.90
2023-01-02T20:39:58.583Z,1.10
2023-01-02T20:42:25.534Z,1.25
2023-01-02T20:44:52.389Z,1.00
2023-01-02T20:47:19.536Z,1.30
2023-01-02T20:49:46.259Z,1.27
2023-01-02T20:52:13.020Z,1.00
2023-01-02T20:54:39.922Z,1.08
2023-01-02T20:57:06.686Z,0.95
2023-01-02T20:59:33.408Z,1.40
2023-01-02T21:02:00.214Z,1.48
2023-01-02T21:04:34.244Z,1.30
2023-01-02T21:07:03.470Z,1.10
2023-01-02T21:09:30.140Z,1.30
2023-01-02T21:11:56.905Z,1.08
2023-01-02T21:14:23.628Z,1.23
2023-01-02T21:16:50.363Z,1.02
2023-01-02T21:19:17.124Z,1.00
2023-01-02T21:21:43.881Z,1.13
2023-01-02T21:24:10.626Z,1.30
2023-01-02T21:26:37.370Z,1.40
2023-01-02T21:29:04.112Z,1.27
2023-01-02T21:31:30.864Z,1.60
2023-01-02T21:33:57.597Z,1.33
2023-01-02T21:36:24.266Z,1.30
2023-01-02T21:38:50.991Z,1.50
2023-01-02T21:41:17.686Z,1.10
2023-01-02T21:43:44.875Z,1.40
2023-01-02T21:46:11.945Z,1.25
2023-01-02T21:48:38.742Z,1.30
2023-01-02T21:51:06.434Z,1.40
2023-01-02T21:53:33.348Z,1.42
2023-01-02T21:56:00.152Z,1.48
2023-01-02T21:58:26.911Z,1.60
2023-01-02T22:00:53.843Z,1.70
2023-01-02T22:03:20.691Z,1.70
2023-01-02T22:05:47.534Z,1.30
2023-01-02T22:08:14.185Z,1.52
2023-01-02T22:10:40.874Z,1.80
2023-01-02T22:13:07.653Z,1.77
2023-01-02T22:15:34.356Z,1.70
2023-01-02T22:18:01.055Z,1.38
2023-01-02T22:20:27.810Z,1.60
2023-01-02T22:22:54.455Z,1.65
2023-01-02T22:25:21.163Z,1.58
2023-01-02T22:27:47.866Z,1.90
2023-01-02T22:30:34.615Z,1.52
2023-01-02T22:33:01.736Z,2.28
2023-01-02T22:35:28.570Z,1.70
2023-01-02T22:37:55.240Z,1.60
2023-01-02T22:40:22.006Z,2.15
2023-01-02T22:43:00.305Z,2.22
2023-01-02T22:45:36.958Z,1.90
2023-01-02T22:48:07.539Z,2.00
2023-01-02T22:50:42.487Z,1.90
2023-01-02T22:53:21.789Z,2.07
2023-01-02T22:55:49.673Z,2.20
2023-01-02T22:58:16.799Z,2.08
2023-01-02T23:00:49.308Z,2.15
2023-01-02T23:03:16.804Z,2.30
2023-01-02T23:05:43.579Z,2.60
2023-01-02T23:08:10.308Z,3.08
2023-01-02T23:10:37.511Z,3.00
2023-01-02T23:13:04.165Z,3.08
2023-01-02T23:15:30.869Z,3.25
2023-01-02T23:17:57.538Z,3.22
2023-01-02T23:20:25.296Z,3.15
2023-01-02T23:22:52.069Z,3.45
2023-01-02T23:25:18.814Z,3.60
2023-01-02T23:27:45.487Z,3.22
2023-01-02T23:30:12.739Z,3.20
2023-01-02T23:32:39.423Z,3.17
2023-01-02T23:35:06.792Z,3.13
2023-01-02T23:37:33.474Z,3.08
2023-01-02T23:40:00.207Z,2.90
2023-01-02T23:42:26.932Z,3.00
2023-01-02T23:44:53.577Z,2.92
2023-01-02T23:47:20.291Z,2.90
2023-01-02T23:49:46.943Z,3.33
2023-01-02T23:52:13.611Z,3.42
2023-01-02T23:54:40.365Z,3.00
2023-01-02T23:57:07.037Z,3.35
2023-01-02T23:59:33.756Z,2.90
